KCID/CID METAR and TAF weather

Enter ICAO airport designator
Station Type Date Time Source
KCID METAR 2022/06/29 00:52 UTC NOAA

KCID 290052Z 20007KT 10SM CLR 24/14 A3008 RMK AO2 SLP180 T02440144


Station Type Date Time Source
KCID Decoded METAR 2022/06/29 00:52 UTC NOAA

CEDAR RAPIDS AIRPORT, IA, United States (KCID) 41-53N 91-43W
Jun 28, 2022 - 08:52 PM EDT / 2022.06.29 0052 UTC
Wind: from the SSW (200 degrees) at 8 MPH (7 KT):0
Visibility: 10 mile(s):0
Sky conditions: clear
Temperature: 75.9 F (24.4 C)
Dew Point: 57.9 F (14.4 C)
Relative Humidity: 53%
Pressure (altimeter): 30.08 in. Hg (1018 hPa)
ob: KCID 290052Z 20007KT 10SM CLR 24/14 A3008 RMK AO2 SLP180 T02440144
cycle: 1

Station Type Date Time Source
KCID TAF 2022/06/28 18:22 UTC NOAA

TAF KCID 281720Z 2818/2918 21013G22KT P6SM SCT100
FM290000 21009KT P6SM FEW120
FM291000 09005KT P6SM BKN250

Example: see airport list